Time;durP1;ratioP1;P1;durP2;ratioP2;P2;SDS_P1;SDS_P2;PMS_P1;PMS_P2;Temp;Humidity;BMP_temperature;BMP_pressure;BME280_temperature;BME280_humidity;BME280_pressure;Samples;Min_cycle;Max_cycle;Signal;HPM_P1;HPM_P2
2021/04/21 00:02:19;;;;;;;14.43;8.10;;;;;;;-143.98;100.00;68091.63;5091519;28;20053;-80
2021/04/21 00:04:46;;;;;;;16.17;7.50;;;;;;;-143.98;100.00;68091.63;5052581;28;20076;-79
2021/04/21 00:07:16;;;;;;;12.13;7.72;;;;;;;-143.98;100.00;68091.63;5052009;28;20067;-79
2021/04/21 00:09:44;;;;;;;17.63;7.60;;;;;;;-143.98;100.00;68091.63;5065627;28;20125;-79
2021/04/21 00:12:30;;;;;;;14.43;8.90;;;;;;;-143.98;100.00;68091.63;5067320;28;20138;-79
2021/04/21 00:14:57;;;;;;;12.05;7.60;;;;;;;-143.98;100.00;68091.63;5066719;28;20056;-79
2021/04/21 00:17:24;;;;;;;15.45;8.20;;;;;;;-143.98;100.00;68091.63;5054394;28;20059;-81
2021/04/21 00:19:55;;;;;;;16.20;8.88;;;;;;;-143.98;100.00;68091.63;5055179;28;20124;-80
2021/04/21 00:22:24;;;;;;;14.68;8.38;;;;;;;-143.98;100.00;68091.63;5072601;28;20091;-80
2021/04/21 00:24:56;;;;;;;17.60;8.23;;;;;;;-143.98;100.00;68091.63;5054825;28;20049;-79
2021/04/21 00:27:25;;;;;;;16.23;8.15;;;;;;;-143.98;100.00;68091.63;5043947;28;20112;-79
2021/04/21 00:29:54;;;;;;;19.42;8.30;;;;;;;-143.98;100.00;68091.63;5061927;28;20132;-80
2021/04/21 00:32:26;;;;;;;18.63;8.48;;;;;;;-143.98;100.00;68091.63;5062942;28;20061;-79
2021/04/21 00:34:56;;;;;;;16.77;8.32;;;;;;;-143.98;100.00;68091.63;5063085;28;20063;-78
2021/04/21 00:37:25;;;;;;;16.17;8.27;;;;;;;-143.98;100.00;68091.63;5063719;28;20067;-78
2021/04/21 00:39:51;;;;;;;19.08;8.68;;;;;;;-143.98;100.00;68091.63;5046964;28;20056;-79
2021/04/21 00:42:41;;;;;;;18.33;8.43;;;;;;;-143.98;100.00;68091.63;5049258;28;20091;-79
2021/04/21 00:45:14;;;;;;;15.98;8.43;;;;;;;-143.98;100.00;68091.63;5067097;28;20049;-79
2021/04/21 00:48:13;;;;;;;30.08;9.07;;;;;;;-143.98;100.00;68091.63;5050263;28;20056;-79
2021/04/21 00:50:50;;;;;;;27.05;9.45;;;;;;;-143.98;100.00;68091.63;5049473;28;20057;-79
2021/04/21 00:53:28;;;;;;;16.40;8.85;;;;;;;-143.98;100.00;68091.63;5050898;28;20243;-79
2021/04/21 00:56:21;;;;;;;18.58;8.93;;;;;;;-143.98;100.00;68091.63;5068985;28;20087;-79
2021/04/21 00:59:09;;;;;;;15.02;7.93;;;;;;;-143.98;100.00;68091.63;5066771;28;20092;-79
2021/04/21 01:01:37;;;;;;;13.88;8.93;;;;;;;-143.98;100.00;68091.63;5066706;28;20124;-79
2021/04/21 01:04:05;;;;;;;15.35;8.57;;;;;;;-143.98;100.00;68091.63;5049891;28;20076;-79
2021/04/21 01:06:41;;;;;;;15.90;8.60;;;;;;;-143.98;100.00;68091.63;5067497;28;20110;-79
2021/04/21 01:09:11;;;;;;;14.18;8.10;;;;;;;-143.98;100.00;68091.63;5064740;28;20085;-79
2021/04/21 01:11:43;;;;;;;15.38;8.70;;;;;;;-143.98;100.00;68091.63;5064870;28;20110;-79
2021/04/21 01:14:13;;;;;;;17.98;9.18;;;;;;;-143.98;100.00;68091.63;5064255;28;20061;-79
2021/04/21 01:16:41;;;;;;;14.70;8.32;;;;;;;-143.98;100.00;68091.63;5065091;28;20160;-79
2021/04/21 01:19:16;;;;;;;16.48;9.23;;;;;;;-143.98;100.00;68091.63;5047728;28;20080;-80
2021/04/21 01:21:52;;;;;;;16.30;9.45;;;;;;;-143.98;100.00;68091.63;5061370;28;20064;-80
2021/04/21 01:24:35;;;;;;;19.83;9.23;;;;;;;-143.98;100.00;68091.63;5049293;28;20067;-79
2021/04/21 01:27:19;;;;;;;15.50;9.73;;;;;;;-143.98;100.00;68091.63;5066444;28;20135;-79
2021/04/21 01:29:49;;;;;;;15.98;9.07;;;;;;;-143.98;100.00;68091.63;5066649;28;20084;-80
2021/04/21 01:32:16;;;;;;;16.58;8.60;;;;;;;-143.98;100.00;68091.63;5048020;28;20163;-79
2021/04/21 01:34:54;;;;;;;14.57;8.82;;;;;;;-143.98;100.00;68091.63;5066251;28;20071;-79
2021/04/21 01:37:25;;;;;;;15.65;9.18;;;;;;;-143.98;100.00;68091.63;5050039;28;20064;-79
2021/04/21 01:40:15;;;;;;;20.45;9.68;;;;;;;-143.98;100.00;68091.63;5065833;28;20092;-79
2021/04/21 01:42:44;;;;;;;16.55;9.45;;;;;;;-143.98;100.00;68091.63;5049338;28;20144;-79
2021/04/21 01:45:13;;;;;;;18.00;9.48;;;;;;;-143.98;100.00;68091.63;5065781;28;20120;-80
2021/04/21 01:47:41;;;;;;;16.25;9.55;;;;;;;-143.98;100.00;68091.63;5072531;28;20060;-79
2021/04/21 01:50:08;;;;;;;13.80;9.05;;;;;;;-143.98;100.00;68091.63;5056194;28;20072;-79
2021/04/21 01:52:38;;;;;;;15.35;9.70;;;;;;;-143.98;100.00;68091.63;5054903;28;20080;-80
2021/04/21 01:55:19;;;;;;;15.60;8.95;;;;;;;-143.98;100.00;68091.63;5067481;28;20053;-79
2021/04/21 01:58:14;;;;;;;18.75;9.95;;;;;;;-143.98;100.00;68091.63;5066015;28;20233;-79
2021/04/21 02:01:04;;;;;;;21.75;9.63;;;;;;;-143.98;100.00;68091.63;5047765;28;20072;-79
2021/04/21 02:03:37;;;;;;;17.90;10.40;;;;;;;-143.98;100.00;68091.63;5048974;28;20340;-79
2021/04/21 02:06:17;;;;;;;20.98;11.05;;;;;;;-143.98;100.00;68091.63;5052443;28;20079;-79
2021/04/21 02:09:14;;;;;;;15.15;10.00;;;;;;;-143.98;100.00;68091.63;5056413;28;20056;-79
2021/04/21 02:11:54;;;;;;;18.30;9.77;;;;;;;-143.98;100.00;68091.63;5047584;28;20060;-80
2021/04/21 02:14:35;;;;;;;24.88;10.95;;;;;;;-143.98;100.00;68091.63;5049580;28;20048;-79
2021/04/21 02:17:24;;;;;;;15.82;9.45;;;;;;;-143.98;100.00;68091.63;5065955;28;20084;-79
2021/04/21 02:20:28;;;;;;;21.70;11.07;;;;;;;-143.98;100.00;68091.63;5025886;28;20084;-79
2021/04/21 02:23:11;;;;;;;16.88;10.50;;;;;;;-143.98;100.00;68091.63;5064242;28;20048;-79
2021/04/21 02:25:49;;;;;;;18.33;10.77;;;;;;;-143.98;100.00;68091.63;5047804;28;20087;-79
2021/04/21 02:28:22;;;;;;;19.33;11.68;;;;;;;-143.98;100.00;68091.63;5048883;28;20061;-79
2021/04/21 02:31:23;;;;;;;18.23;11.63;;;;;;;-143.98;100.00;68091.63;5065079;28;20318;-79
2021/04/21 02:33:57;;;;;;;21.23;10.95;;;;;;;-143.98;100.00;68091.63;5065421;28;20301;-79
2021/04/21 02:36:29;;;;;;;22.92;11.48;;;;;;;-143.98;100.00;68091.63;5049876;28;20063;-79
2021/04/21 02:39:12;;;;;;;19.73;10.48;;;;;;;-143.98;100.00;68091.63;5065412;28;20091;-79
2021/04/21 02:41:59;;;;;;;21.77;11.20;;;;;;;-143.98;100.00;68091.63;5049456;28;20380;-80
2021/04/21 02:44:57;;;;;;;24.75;13.00;;;;;;;-143.98;100.00;68091.63;5070392;28;20087;-79
2021/04/21 02:47:32;;;;;;;18.23;11.63;;;;;;;-143.98;100.00;68091.63;5073305;28;20061;-79
2021/04/21 02:50:21;;;;;;;21.85;10.75;;;;;;;-143.98;100.00;68091.63;5051228;28;20053;-79
2021/04/21 02:53:06;;;;;;;19.73;12.25;;;;;;;-143.98;100.00;68091.63;5065940;28;20064;-79
2021/04/21 02:55:35;;;;;;;19.02;11.38;;;;;;;-143.98;100.00;68091.63;5049250;28;20140;-79
2021/04/21 02:58:15;;;;;;;26.27;12.75;;;;;;;-143.98;100.00;68091.63;5064768;28;20144;-79
2021/04/21 03:01:00;;;;;;;26.50;13.27;;;;;;;-143.98;100.00;68091.63;5047874;28;20053;-79
2021/04/21 03:03:27;;;;;;;20.48;12.00;;;;;;;-143.98;100.00;68091.63;5068567;28;20065;-79
2021/04/21 03:06:25;;;;;;;22.25;13.27;;;;;;;-143.98;100.00;68091.63;5072084;28;20061;-79
2021/04/21 03:09:14;;;;;;;24.73;12.88;;;;;;;-143.98;100.00;68091.63;5059575;28;20306;-79
2021/04/21 03:11:41;;;;;;;23.85;12.23;;;;;;;-143.98;100.00;68091.63;5049177;28;20065;-80
2021/04/21 03:14:13;;;;;;;20.85;12.10;;;;;;;-143.98;100.00;68091.63;5064098;28;20068;-79
2021/04/21 03:16:43;;;;;;;24.38;12.52;;;;;;;-143.98;100.00;68091.63;5055490;28;20060;-79
2021/04/21 03:19:12;;;;;;;20.95;11.02;;;;;;;-143.98;100.00;68091.63;5069513;28;20052;-79
2021/04/21 03:21:40;;;;;;;20.17;11.60;;;;;;;-143.98;100.00;68091.63;5063930;28;20088;-80
2021/04/21 03:24:14;;;;;;;19.40;11.48;;;;;;;-143.98;100.00;68091.63;5064391;28;20052;-79
2021/04/21 03:26:44;;;;;;;26.85;12.52;;;;;;;-143.98;100.00;68091.63;5063187;28;20057;-80
2021/04/21 03:29:37;;;;;;;19.60;12.20;;;;;;;-143.98;100.00;68091.63;5063966;28;20179;-80
2021/04/21 03:32:09;;;;;;;20.30;11.98;;;;;;;-143.98;100.00;68091.63;5056265;28;20470;-79
2021/04/21 03:34:37;;;;;;;21.83;12.52;;;;;;;-143.98;100.00;68091.63;5044273;28;20049;-80
2021/04/21 03:37:12;;;;;;;24.48;13.45;;;;;;;-143.98;100.00;68091.63;5043455;28;20421;-80
2021/04/21 03:39:39;;;;;;;23.88;13.27;;;;;;;-143.98;100.00;68091.63;5059110;28;20057;-78
2021/04/21 03:42:06;;;;;;;21.10;12.90;;;;;;;-143.98;100.00;68091.63;5043716;28;20084;-79
2021/04/21 03:44:33;;;;;;;23.80;13.40;;;;;;;-143.98;100.00;68091.63;5044378;28;20404;-79
2021/04/21 03:47:00;;;;;;;23.75;13.00;;;;;;;-143.98;100.00;68091.63;5027315;28;20127;-79
2021/04/21 03:49:26;;;;;;;22.83;12.73;;;;;;;-143.98;100.00;68091.63;5059659;28;20111;-79
2021/04/21 03:51:55;;;;;;;23.38;13.07;;;;;;;-143.98;100.00;68091.63;5042639;28;20057;-79
2021/04/21 03:54:23;;;;;;;21.65;13.02;;;;;;;-143.98;100.00;68091.63;5059101;28;20180;-80
2021/04/21 03:56:50;;;;;;;20.55;12.77;;;;;;;-143.98;100.00;68091.63;5059675;28;20429;-81
2021/04/21 03:59:17;;;;;;;23.70;13.32;;;;;;;-143.98;100.00;68091.63;5045080;28;20431;-80
2021/04/21 04:01:48;;;;;;;21.90;12.75;;;;;;;-143.98;100.00;68091.63;5040900;28;20057;-80
2021/04/21 04:04:15;;;;;;;25.80;13.35;;;;;;;-143.98;100.00;68091.63;5040660;28;20463;-78
2021/04/21 04:06:47;;;;;;;20.50;13.10;;;;;;;-143.98;100.00;68091.63;5024971;28;20063;-80
2021/04/21 04:09:16;;;;;;;18.92;12.55;;;;;;;-143.98;100.00;68091.63;5040788;28;20147;-80
2021/04/21 04:11:50;;;;;;;21.45;12.20;;;;;;;-143.98;100.00;68091.63;5041389;28;20119;-79
2021/04/21 04:14:27;;;;;;;22.05;12.45;;;;;;;-143.98;100.00;68091.63;5024857;28;20060;-80
2021/04/21 04:16:55;;;;;;;20.45;12.43;;;;;;;-143.98;100.00;68091.63;5041816;28;20097;-80
2021/04/21 04:19:22;;;;;;;19.63;11.65;;;;;;;-143.98;100.00;68091.63;5041771;28;20053;-80
2021/04/21 04:22:05;;;;;;;27.15;12.65;;;;;;;-143.98;100.00;68091.63;5040190;28;20176;-81
2021/04/21 04:24:53;;;;;;;23.17;11.93;;;;;;;-143.98;100.00;68091.63;5040062;28;20053;-81
2021/04/21 04:27:25;;;;;;;22.20;12.00;;;;;;;-143.98;100.00;68091.63;5048646;28;20125;-80
2021/04/21 04:29:54;;;;;;;21.13;11.30;;;;;;;-143.98;100.00;68091.63;5033100;28;20099;-80
2021/04/21 04:32:22;;;;;;;24.50;12.35;;;;;;;-143.98;100.00;68091.63;5045481;28;20057;-80
2021/04/21 04:34:57;;;;;;;19.23;11.88;;;;;;;-143.98;100.00;68091.63;5043386;28;20058;-80
2021/04/21 04:37:25;;;;;;;24.35;13.20;;;;;;;-143.98;100.00;68091.63;5041023;28;20057;-80
2021/04/21 04:39:52;;;;;;;21.67;12.98;;;;;;;-143.98;100.00;68091.63;5041157;28;20049;-79
2021/04/21 04:42:20;;;;;;;19.20;12.30;;;;;;;-143.98;100.00;68091.63;5036397;28;20236;-80
2021/04/21 04:44:47;;;;;;;17.95;12.15;;;;;;;-143.98;100.00;68091.63;5039865;28;20136;-79
2021/04/21 04:47:26;;;;;;;18.73;11.85;;;;;;;-143.98;100.00;68091.63;5038132;28;20099;-80
2021/04/21 04:50:08;;;;;;;20.05;10.93;;;;;;;-143.98;100.00;68091.63;5021402;28;20073;-80
2021/04/21 04:52:40;;;;;;;21.85;12.25;;;;;;;-143.98;100.00;68091.63;5053847;28;20053;-80
2021/04/21 04:55:08;;;;;;;22.17;11.20;;;;;;;-143.98;100.00;68091.63;5022340;28;20064;-80
2021/04/21 04:57:39;;;;;;;24.17;11.48;;;;;;;-143.98;100.00;68091.63;5021306;28;20053;-80
2021/04/21 05:00:25;;;;;;;20.40;11.93;;;;;;;-143.98;100.00;68091.63;5035704;28;20150;-80
2021/04/21 05:03:12;;;;;;;17.07;9.83;;;;;;;-143.98;100.00;68091.63;5037438;28;20233;-80
2021/04/21 05:05:39;;;;;;;17.27;10.93;;;;;;;-143.98;100.00;68091.63;5019783;28;20471;-80
2021/04/21 05:08:07;;;;;;;17.50;11.35;;;;;;;-143.98;100.00;68091.63;5034745;28;20100;-80
2021/04/21 05:10:40;;;;;;;15.32;10.25;;;;;;;-143.98;100.00;68091.63;5035430;28;20421;-79
2021/04/21 05:13:13;;;;;;;17.10;9.75;;;;;;;-143.98;100.00;68091.63;5038574;28;20057;-80
2021/04/21 05:15:39;;;;;;;14.57;9.75;;;;;;;-143.98;100.00;68091.63;5039440;28;20132;-80
2021/04/21 05:18:46;;;;;;;17.33;9.73;;;;;;;-143.98;100.00;68091.63;5074405;28;20052;-81
2021/04/21 05:21:42;;;;;;;15.88;8.63;;;;;;;-143.98;100.00;68091.63;5062864;28;20049;-80
2021/04/21 05:28:23;;;;;;;19.60;9.23;;;;;;;-143.98;100.00;68091.63;5059163;28;20057;-81
2021/04/21 05:31:27;;;;;;;13.00;8.27;;;;;;;-143.98;100.00;68091.63;4969440;28;20267;-81
2021/04/21 05:34:41;;;;;;;14.13;9.07;;;;;;;-143.98;100.00;68091.63;5064068;28;20092;-79
2021/04/21 05:37:39;;;;;;;15.40;8.57;;;;;;;-143.98;100.00;68091.63;5068641;28;20052;-80
2021/04/21 05:40:21;;;;;;;12.80;7.88;;;;;;;-143.98;100.00;68091.63;5052038;28;20103;-80
2021/04/21 05:43:21;;;;;;;14.85;8.38;;;;;;;-143.98;100.00;68091.63;5041331;28;20092;-81
2021/04/21 05:45:57;;;;;;;14.13;8.90;;;;;;;-143.98;100.00;68091.63;5042982;28;20057;-80
2021/04/21 05:49:37;;;;;;;16.65;8.27;;;;;;;-143.98;100.00;68091.63;5025273;28;20063;-81
2021/04/21 05:52:31;;;;;;;14.40;8.25;;;;;;;-143.98;100.00;68091.63;4930741;29;20308;-81
2021/04/21 05:55:26;;;;;;;16.17;8.65;;;;;;;-143.98;100.00;68091.63;4906563;29;20063;-81
2021/04/21 05:58:18;;;;;;;16.90;8.43;;;;;;;-143.98;100.00;68091.63;4951404;28;20335;-81
2021/04/21 06:01:12;;;;;;;14.00;8.77;;;;;;;-143.98;100.00;68091.63;5021027;28;20063;-81
2021/04/21 06:03:40;;;;;;;15.13;8.15;;;;;;;-143.98;100.00;68091.63;5048965;28;20056;-80
2021/04/21 06:06:06;;;;;;;11.38;8.18;;;;;;;-143.98;100.00;68091.63;5049012;28;20374;-83
2021/04/21 06:08:33;;;;;;;17.80;8.27;;;;;;;-143.98;100.00;68091.63;5031938;28;20241;-81
2021/04/21 06:11:00;;;;;;;12.48;8.10;;;;;;;-143.98;100.00;68091.63;5036042;28;20128;-82
2021/04/21 06:13:31;;;;;;;19.20;8.18;;;;;;;-143.98;100.00;68091.63;5033092;28;20302;-81
2021/04/21 06:15:59;;;;;;;12.77;8.27;;;;;;;-143.98;100.00;68091.63;5030923;28;20053;-81
2021/04/21 06:18:29;;;;;;;11.63;7.63;;;;;;;-143.98;100.00;68091.63;5032487;28;20283;-80
2021/04/21 06:20:56;;;;;;;14.57;8.02;;;;;;;-143.98;100.00;68091.63;5031311;28;20152;-81
2021/04/21 06:23:24;;;;;;;19.70;8.43;;;;;;;-143.98;100.00;68091.63;5046362;28;20077;-82
2021/04/21 06:26:01;;;;;;;17.00;7.70;;;;;;;-143.98;100.00;68091.63;5064457;28;20056;-82
2021/04/21 06:28:29;;;;;;;12.60;7.97;;;;;;;-143.98;100.00;68091.63;5036581;28;20056;-81
2021/04/21 06:31:12;;;;;;;16.00;8.60;;;;;;;-143.98;100.00;68091.63;5035486;28;20086;-81
2021/04/21 06:33:44;;;;;;;18.95;8.27;;;;;;;-143.98;100.00;68091.63;5058014;28;20104;-82
2021/04/21 06:36:14;;;;;;;13.43;7.70;;;;;;;-143.98;100.00;68091.63;5062585;28;20059;-81
2021/04/21 06:38:46;;;;;;;11.90;8.43;;;;;;;-143.98;100.00;68091.63;5060261;28;20273;-81
2021/04/21 06:41:17;;;;;;;11.82;7.10;;;;;;;-143.98;100.00;68091.63;5035240;28;20057;-82
2021/04/21 06:43:43;;;;;;;11.30;7.15;;;;;;;-143.98;100.00;68091.63;5052990;28;20067;-81
2021/04/21 06:46:10;;;;;;;14.18;5.93;;;;;;;-143.98;100.00;68091.63;5061319;28;20231;-81
2021/04/21 06:48:40;;;;;;;12.30;7.60;;;;;;;-143.98;100.00;68091.63;5059820;28;20148;-81
2021/04/21 06:51:09;;;;;;;10.25;6.47;;;;;;;-143.98;100.00;68091.63;5038243;28;20076;-81
2021/04/21 06:53:36;;;;;;;10.70;6.80;;;;;;;-143.98;100.00;68091.63;5032373;28;20083;-81
2021/04/21 06:56:06;;;;;;;11.75;7.07;;;;;;;-143.98;100.00;68091.63;5032290;28;20144;-82
2021/04/21 06:58:36;;;;;;;8.60;6.47;;;;;;;-143.98;100.00;68091.63;5033542;28;20057;-81
2021/04/21 07:01:13;;;;;;;13.10;7.22;;;;;;;-143.98;100.00;68091.63;5050060;28;20065;-81
2021/04/21 07:03:41;;;;;;;12.05;7.25;;;;;;;-143.98;100.00;68091.63;5040952;28;20217;-81
2021/04/21 07:06:08;;;;;;;13.80;7.38;;;;;;;-143.98;100.00;68091.63;5037270;28;20116;-81
2021/04/21 07:08:38;;;;;;;15.35;8.90;;;;;;;-143.98;100.00;68091.63;5044660;28;20312;-81
2021/04/21 07:11:25;;;;;;;20.08;8.52;;;;;;;-143.98;100.00;68091.63;5030566;28;20295;-81
2021/04/21 07:14:05;;;;;;;18.67;7.35;;;;;;;-143.98;100.00;68091.63;5015030;28;20460;-81
2021/04/21 07:16:36;;;;;;;14.52;7.88;;;;;;;-143.98;100.00;68091.63;5014254;28;20140;-82
2021/04/21 07:19:10;;;;;;;15.48;7.78;;;;;;;-143.98;100.00;68091.63;5016296;28;20380;-81
2021/04/21 07:21:40;;;;;;;12.07;7.25;;;;;;;-143.98;100.00;68091.63;5036428;28;20412;-81
2021/04/21 07:24:11;;;;;;;11.80;7.20;;;;;;;-143.98;100.00;68091.63;5020467;28;20084;-80
2021/04/21 07:26:42;;;;;;;16.27;8.05;;;;;;;-143.98;100.00;68091.63;5057015;28;20056;-80
2021/04/21 07:29:10;;;;;;;16.67;8.70;;;;;;;-143.98;100.00;68091.63;5041596;28;20044;-82
2021/04/21 07:31:38;;;;;;;17.30;9.85;;;;;;;-143.98;100.00;68091.63;5053848;28;20304;-81
2021/04/21 07:34:34;;;;;;;13.02;8.07;;;;;;;-143.98;100.00;68091.63;5055048;28;20274;-82
2021/04/21 07:40:50;;;;;;;14.10;7.97;;;;;;;-143.98;100.00;68091.63;5071595;28;20051;-82
2021/04/21 07:43:20;;;;;;;18.07;8.20;;;;;;;-143.98;100.00;68091.63;5057250;28;20056;-82
2021/04/21 07:45:58;;;;;;;13.93;8.43;;;;;;;-143.98;100.00;68091.63;5057082;28;20059;-82
2021/04/21 07:48:33;;;;;;;18.02;8.23;;;;;;;-143.98;100.00;68091.63;5072633;28;20113;-82
2021/04/21 07:51:16;;;;;;;16.73;8.25;;;;;;;-143.98;100.00;68091.63;5053989;28;20148;-82
2021/04/21 07:54:00;;;;;;;15.98;9.05;;;;;;;-143.98;100.00;68091.63;5058858;28;20416;-82
2021/04/21 07:56:34;;;;;;;17.75;8.85;;;;;;;-143.98;100.00;68091.63;5074138;28;20072;-80
2021/04/21 07:59:38;;;;;;;20.45;10.45;;;;;;;-143.98;100.00;68091.63;5052789;28;20048;-83
2021/04/21 08:02:20;;;;;;;18.20;9.82;;;;;;;-143.98;100.00;68091.63;5042710;28;20081;-84
2021/04/21 08:04:56;;;;;;;20.08;10.02;;;;;;;-143.98;100.00;68091.63;5022870;28;20294;-82
2021/04/21 08:08:06;;;;;;;14.25;9.43;;;;;;;-143.98;100.00;68091.63;5021457;28;20084;-83
2021/04/21 08:10:36;;;;;;;16.33;9.60;;;;;;;-143.98;100.00;68091.63;5052578;28;20119;-82
2021/04/21 08:13:08;;;;;;;15.05;10.95;;;;;;;-143.98;100.00;68091.63;5053615;28;20065;-82
2021/04/21 08:15:41;;;;;;;18.33;10.90;;;;;;;-143.98;100.00;68091.63;5022614;28;20601;-83
2021/04/21 08:18:14;;;;;;;19.95;10.77;;;;;;;-143.98;100.00;68091.63;5024005;28;20116;-81
2021/04/21 08:20:44;;;;;;;17.52;11.30;;;;;;;-143.98;100.00;68091.63;5040644;28;20060;-81
2021/04/21 08:23:31;;;;;;;16.13;10.77;;;;;;;-143.98;100.00;68091.63;5032704;28;20248;-82
2021/04/21 08:29:24;;;;;;;22.02;12.65;;;;;;;-143.98;100.00;68091.63;5035787;28;20113;-82
2021/04/21 08:31:54;;;;;;;23.02;14.23;;;;;;;-143.98;100.00;68091.63;5019222;28;20076;-82
2021/04/21 08:34:20;;;;;;;23.48;14.75;;;;;;;-143.98;100.00;68091.63;5033999;28;20050;-83
2021/04/21 08:36:48;;;;;;;18.70;14.43;;;;;;;-143.98;100.00;68091.63;5033435;28;20364;-82
2021/04/21 08:39:18;;;;;;;19.17;13.75;;;;;;;-143.98;100.00;68091.63;5033289;28;20049;-83
2021/04/21 08:41:46;;;;;;;25.45;15.10;;;;;;;-143.98;100.00;68091.63;5032226;28;20581;-83
2021/04/21 08:44:14;;;;;;;23.00;14.55;;;;;;;-143.98;100.00;68091.63;5033108;28;20064;-83
2021/04/21 08:46:41;;;;;;;22.83;15.10;;;;;;;-143.98;100.00;68091.63;5037343;28;20403;-83
2021/04/21 08:49:09;;;;;;;23.10;14.95;;;;;;;-143.98;100.00;68091.63;5049427;28;20116;-83
2021/04/21 08:51:40;;;;;;;37.15;16.75;;;;;;;-143.98;100.00;68091.63;5032234;28;20080;-82
2021/04/21 08:54:11;;;;;;;29.48;17.67;;;;;;;-143.98;100.00;68091.63;5032980;28;20053;-81
2021/04/21 08:56:41;;;;;;;27.73;18.35;;;;;;;-143.98;100.00;68091.63;5036267;28;20049;-82
2021/04/21 08:59:09;;;;;;;25.15;17.05;;;;;;;-143.98;100.00;68091.63;5035248;28;20051;-83
2021/04/21 09:01:46;;;;;;;32.15;18.02;;;;;;;-143.98;100.00;68091.63;5079656;28;20230;-82
2021/04/21 09:04:20;;;;;;;28.73;17.15;;;;;;;-143.98;100.00;68091.63;5062228;28;20064;-81
2021/04/21 09:06:48;;;;;;;27.42;17.58;;;;;;;-143.98;100.00;68091.63;5067787;28;20072;-81
2021/04/21 09:09:18;;;;;;;25.50;16.90;;;;;;;-143.98;100.00;68091.63;5067224;28;20057;-82
2021/04/21 09:11:45;;;;;;;22.45;16.67;;;;;;;-143.98;100.00;68091.63;5063032;28;20430;-82
2021/04/21 09:14:24;;;;;;;28.15;15.07;;;;;;;-143.98;100.00;68091.63;5046361;28;20053;-82
2021/04/21 09:16:50;;;;;;;27.17;15.23;;;;;;;-143.98;100.00;68091.63;5045821;28;20079;-81
2021/04/21 09:19:17;;;;;;;26.05;16.85;;;;;;;-143.98;100.00;68091.63;5051965;28;20084;-81
2021/04/21 09:21:44;;;;;;;27.35;17.13;;;;;;;-143.98;100.00;68091.63;5045012;28;20152;-81
2021/04/21 09:24:11;;;;;;;30.65;18.52;;;;;;;-143.98;100.00;68091.63;5051446;28;20080;-81
2021/04/21 09:26:38;;;;;;;29.10;17.50;;;;;;;-143.98;100.00;68091.63;5068224;28;20057;-80
2021/04/21 09:29:05;;;;;;;29.05;16.30;;;;;;;-143.98;100.00;68091.63;5041788;28;20068;-83
2021/04/21 09:31:33;;;;;;;28.42;16.10;;;;;;;-143.98;100.00;68091.63;5042118;28;20443;-82
2021/04/21 09:34:11;;;;;;;26.20;15.48;;;;;;;-143.98;100.00;68091.63;5041628;28;20049;-81
2021/04/21 09:36:44;;;;;;;27.30;15.43;;;;;;;-143.98;100.00;68091.63;5041911;28;20393;-81
2021/04/21 09:39:16;;;;;;;23.30;15.25;;;;;;;-143.98;100.00;68091.63;5046534;28;20041;-81
2021/04/21 09:41:44;;;;;;;27.30;15.07;;;;;;;-143.98;100.00;68091.63;5046675;28;20104;-81
2021/04/21 09:44:24;;;;;;;32.15;15.15;;;;;;;-143.98;100.00;68091.63;5031776;28;20057;-81
2021/04/21 09:47:01;;;;;;;30.48;16.25;;;;;;;-143.98;100.00;68091.63;5061600;28;20099;-81
2021/04/21 09:49:30;;;;;;;25.45;16.45;;;;;;;-143.98;100.00;68091.63;5043246;28;20087;-81
2021/04/21 09:51:58;;;;;;;28.10;16.73;;;;;;;-143.98;100.00;68091.63;5048389;28;20045;-81
2021/04/21 09:54:29;;;;;;;29.38;16.15;;;;;;;-143.98;100.00;68091.63;5047682;28;20125;-80
2021/04/21 09:57:14;;;;;;;26.52;16.98;;;;;;;-143.98;100.00;68091.63;5061182;28;20151;-80
2021/04/21 10:00:19;;;;;;;22.30;13.25;;;;;;;-143.98;100.00;68091.63;5050051;28;20108;-81
2021/04/21 10:03:29;;;;;;;18.80;10.57;;;;;;;-143.98;100.00;68091.63;5039443;28;20072;-80
2021/04/21 10:06:21;;;;;;;;;;;;;;;-143.98;100.00;68091.63;5045750;28;20385;-79
2021/04/21 10:08:49;;;;;;;8.85;6.38;;;;;;;-143.98;100.00;68091.63;5056931;28;19931;-81
2021/04/21 10:11:18;;;;;;;11.75;6.65;;;;;;;-143.98;100.00;68091.63;5039269;28;20376;-80
2021/04/21 10:13:50;;;;;;;14.95;6.18;;;;;;;-143.98;100.00;68091.63;5039826;28;20057;-81
2021/04/21 10:16:16;;;;;;;11.32;5.82;;;;;;;-143.98;100.00;68091.63;5055574;28;20454;-81
2021/04/21 10:18:44;;;;;;;8.85;5.78;;;;;;;-143.98;100.00;68091.63;5042709;28;20060;-81
2021/04/21 10:21:18;;;;;;;12.07;6.40;;;;;;;-143.98;100.00;68091.63;5042857;28;20048;-81
2021/04/21 10:23:47;;;;;;;12.57;5.90;;;;;;;-143.98;100.00;68091.63;5031394;28;20072;-81
2021/04/21 10:26:16;;;;;;;13.57;6.07;;;;;;;-143.98;100.00;68091.63;5065318;28;20047;-82
2021/04/21 10:28:44;;;;;;;13.68;6.78;;;;;;;-143.98;100.00;68091.63;5055859;28;20281;-80
2021/04/21 10:31:15;;;;;;;11.52;5.97;;;;;;;-143.98;100.00;68091.63;5037479;28;20331;-80
2021/04/21 10:33:41;;;;;;;12.60;6.65;;;;;;;-143.98;100.00;68091.63;5039818;28;20492;-79
2021/04/21 10:36:09;;;;;;;14.27;6.60;;;;;;;-143.98;100.00;68091.63;5053305;28;20288;-80
2021/04/21 10:38:41;;;;;;;11.98;6.55;;;;;;;-143.98;100.00;68091.63;5056285;28;20045;-80
2021/04/21 10:41:35;;;;;;;13.55;5.43;;;;;;;-143.98;100.00;68091.63;5038733;28;20053;-79
2021/04/21 10:44:22;;;;;;;10.18;4.47;;;;;;;-143.98;100.00;68091.63;5053472;28;20140;-80
2021/04/21 10:46:57;;;;;;;7.78;4.22;;;;;;;-143.98;100.00;68091.63;5036359;28;20046;-80
2021/04/21 10:49:41;;;;;;;8.88;2.58;;;;;;;-143.98;100.00;68091.63;5055083;28;20099;-79
2021/04/21 10:52:19;;;;;;;7.75;2.38;;;;;;;-143.98;100.00;68091.63;5036903;28;20204;-80
2021/04/21 10:54:48;;;;;;;8.38;2.40;;;;;;;-143.98;100.00;68091.63;5036656;28;20152;-80
2021/04/21 10:57:31;;;;;;;7.20;2.00;;;;;;;-143.98;100.00;68091.63;5037778;28;20063;-80
2021/04/21 11:00:17;;;;;;;7.15;1.73;;;;;;;-143.98;100.00;68091.63;5055997;28;20049;-81
2021/04/21 11:02:49;;;;;;;5.75;1.77;;;;;;;-143.98;100.00;68091.63;5056453;28;20318;-81
2021/04/21 11:05:16;;;;;;;8.50;1.67;;;;;;;-143.98;100.00;68091.63;5058932;28;20075;-79
2021/04/21 11:08:06;;;;;;;6.90;1.90;;;;;;;-143.98;100.00;68091.63;5058181;28;20369;-80
2021/04/21 11:10:36;;;;;;;7.25;1.50;;;;;;;-143.98;100.00;68091.63;5039313;28;20114;-83
2021/04/21 11:13:05;;;;;;;5.80;1.02;;;;;;;-143.98;100.00;68091.63;5055461;28;20275;-80
2021/04/21 11:15:39;;;;;;;12.32;1.58;;;;;;;-143.98;100.00;68091.63;5038673;28;20087;-81
2021/04/21 11:18:19;;;;;;;14.20;2.20;;;;;;;-143.98;100.00;68091.63;5055365;28;20056;-80
2021/04/21 11:20:46;;;;;;;7.20;1.73;;;;;;;-143.98;100.00;68091.63;5035129;28;20061;-79
2021/04/21 11:24:00;;;;;;;8.57;1.55;;;;;;;-143.98;100.00;68091.63;5037246;28;20113;-79
2021/04/21 11:26:31;;;;;;;6.65;1.10;;;;;;;-143.98;100.00;68091.63;5023064;28;20064;-80
2021/04/21 11:29:19;;;;;;;7.22;1.63;;;;;;;-143.98;100.00;68091.63;5023073;28;20053;-80
2021/04/21 11:31:48;;;;;;;16.88;1.55;;;;;;;-143.98;100.00;68091.63;5035596;28;20099;-81
2021/04/21 11:34:35;;;;;;;5.28;1.55;;;;;;;-143.98;100.00;68091.63;5034888;28;20050;-79
2021/04/21 11:37:56;;;;;;;14.88;1.95;;;;;;;-143.98;100.00;68091.63;5032311;28;20041;-79
2021/04/21 11:48:38;;;;;;;8.90;1.50;;;;;;;-143.98;100.00;68091.63;5043552;28;20380;-80
2021/04/21 11:51:16;;;;;;;14.35;1.88;;;;;;;-143.98;100.00;68091.63;5034074;28;20199;-79
2021/04/21 11:53:46;;;;;;;4.88;1.13;;;;;;;-143.98;100.00;68091.63;5041420;28;20215;-80
2021/04/21 11:56:14;;;;;;;8.30;1.90;;;;;;;-143.98;100.00;68091.63;5060561;28;20116;-80
2021/04/21 11:58:41;;;;;;;7.65;1.45;;;;;;;-143.98;100.00;68091.63;5054690;28;20478;-80